sensor_id;sensor_type;location;lat;lon;timestamp;temperature;humidity
46416;DHT22;32620;51.704;7.822;2023-06-22T00:00:02;20.20;1.00
46416;DHT22;32620;51.704;7.822;2023-06-22T00:02:33;20.10;1.00
46416;DHT22;32620;51.704;7.822;2023-06-22T00:04:59;20.10;61.60
46416;DHT22;32620;51.704;7.822;2023-06-22T00:07:24;20.10;42.30
46416;DHT22;32620;51.704;7.822;2023-06-22T00:09:50;20.00;97.80
46416;DHT22;32620;51.704;7.822;2023-06-22T00:12:15;20.00;99.90
46416;DHT22;32620;51.704;7.822;2023-06-22T00:14:41;19.90;99.90
46416;DHT22;32620;51.704;7.822;2023-06-22T00:17:06;19.90;99.90
46416;DHT22;32620;51.704;7.822;2023-06-22T00:19:32;19.90;99.90
46416;DHT22;32620;51.704;7.822;2023-06-22T00:22:00;19.90;99.90
46416;DHT22;32620;51.704;7.822;2023-06-22T00:24:28;19.90;99.90
46416;DHT22;32620;51.704;7.822;2023-06-22T00:26:54;19.90;99.90
46416;DHT22;32620;51.704;7.822;2023-06-22T00:29:19;19.90;99.90
46416;DHT22;32620;51.704;7.822;2023-06-22T00:31:45;19.90;99.90
46416;DHT22;32620;51.704;7.822;2023-06-22T00:34:10;20.00;99.90
46416;DHT22;32620;51.704;7.822;2023-06-22T00:36:36;19.90;99.90
46416;DHT22;32620;51.704;7.822;2023-06-22T00:39:02;19.90;99.90
46416;DHT22;32620;51.704;7.822;2023-06-22T00:41:27;19.80;99.90
46416;DHT22;32620;51.704;7.822;2023-06-22T00:43:55;19.80;99.90
46416;DHT22;32620;51.704;7.822;2023-06-22T00:46:21;19.80;99.90
46416;DHT22;32620;51.704;7.822;2023-06-22T00:48:48;19.70;99.90
46416;DHT22;32620;51.704;7.822;2023-06-22T00:51:14;19.70;99.90
46416;DHT22;32620;51.704;7.822;2023-06-22T00:53:40;19.60;99.90
46416;DHT22;32620;51.704;7.822;2023-06-22T00:56:06;19.60;99.90
46416;DHT22;32620;51.704;7.822;2023-06-22T00:58:35;19.50;99.90
46416;DHT22;32620;51.704;7.822;2023-06-22T01:01:01;19.50;1.00
46416;DHT22;32620;51.704;7.822;2023-06-22T01:03:27;19.40;1.00
46416;DHT22;32620;51.704;7.822;2023-06-22T01:06:00;19.40;1.00
46416;DHT22;32620;51.704;7.822;2023-06-22T01:08:49;19.30;1.00
46416;DHT22;32620;51.704;7.822;2023-06-22T01:11:23;19.30;1.00
46416;DHT22;32620;51.704;7.822;2023-06-22T01:14:12;19.20;1.00
46416;DHT22;32620;51.704;7.822;2023-06-22T01:16:41;19.30;1.00
46416;DHT22;32620;51.704;7.822;2023-06-22T01:19:37;19.30;1.00
46416;DHT22;32620;51.704;7.822;2023-06-22T01:22:07;19.30;1.00
46416;DHT22;32620;51.704;7.822;2023-06-22T01:24:49;19.30;1.00
46416;DHT22;32620;51.704;7.822;2023-06-22T01:27:56;19.20;1.00
46416;DHT22;32620;51.704;7.822;2023-06-22T01:30:11;19.20;1.00
46416;DHT22;32620;51.704;7.822;2023-06-22T01:32:40;19.10;1.00
46416;DHT22;32620;51.704;7.822;2023-06-22T01:35:07;19.10;1.00
46416;DHT22;32620;51.704;7.822;2023-06-22T01:37:35;19.00;1.00
46416;DHT22;32620;51.704;7.822;2023-06-22T01:40:02;18.90;1.00
46416;DHT22;32620;51.704;7.822;2023-06-22T01:42:29;19.00;1.00
46416;DHT22;32620;51.704;7.822;2023-06-22T01:44:56;19.00;1.00
46416;DHT22;32620;51.704;7.822;2023-06-22T01:47:22;19.00;1.00
46416;DHT22;32620;51.704;7.822;2023-06-22T01:49:48;19.10;1.00
46416;DHT22;32620;51.704;7.822;2023-06-22T01:52:15;19.10;1.00
46416;DHT22;32620;51.704;7.822;2023-06-22T01:54:41;19.10;1.00
46416;DHT22;32620;51.704;7.822;2023-06-22T01:57:07;19.10;1.00
46416;DHT22;32620;51.704;7.822;2023-06-22T01:59:44;19.10;1.00
46416;DHT22;32620;51.704;7.822;2023-06-22T02:02:12;19.00;1.00
46416;DHT22;32620;51.704;7.822;2023-06-22T02:05:00;19.00;1.00
46416;DHT22;32620;51.704;7.822;2023-06-22T02:07:32;19.00;1.00
46416;DHT22;32620;51.704;7.822;2023-06-22T02:10:00;19.00;1.00
46416;DHT22;32620;51.704;7.822;2023-06-22T02:12:28;18.90;1.00
46416;DHT22;32620;51.704;7.822;2023-06-22T02:14:55;18.90;1.00
46416;DHT22;32620;51.704;7.822;2023-06-22T02:17:21;19.00;1.00
46416;DHT22;32620;51.704;7.822;2023-06-22T02:19:46;18.90;1.00
46416;DHT22;32620;51.704;7.822;2023-06-22T02:22:12;18.90;1.00
46416;DHT22;32620;51.704;7.822;2023-06-22T02:24:39;18.80;1.00
46416;DHT22;32620;51.704;7.822;2023-06-22T02:27:05;18.70;1.00
46416;DHT22;32620;51.704;7.822;2023-06-22T02:29:32;18.70;1.00
46416;DHT22;32620;51.704;7.822;2023-06-22T02:31:58;18.70;1.00
46416;DHT22;32620;51.704;7.822;2023-06-22T02:34:24;18.70;1.00
46416;DHT22;32620;51.704;7.822;2023-06-22T02:36:50;18.70;1.00
46416;DHT22;32620;51.704;7.822;2023-06-22T02:39:19;18.70;1.00
46416;DHT22;32620;51.704;7.822;2023-06-22T02:41:46;18.70;1.00
46416;DHT22;32620;51.704;7.822;2023-06-22T02:44:11;18.70;1.00
46416;DHT22;32620;51.704;7.822;2023-06-22T02:46:37;18.70;1.00
46416;DHT22;32620;51.704;7.822;2023-06-22T02:49:02;18.70;1.00
46416;DHT22;32620;51.704;7.822;2023-06-22T02:51:30;18.70;1.00
46416;DHT22;32620;51.704;7.822;2023-06-22T02:53:57;18.70;1.00
46416;DHT22;32620;51.704;7.822;2023-06-22T02:56:22;18.70;1.00
46416;DHT22;32620;51.704;7.822;2023-06-22T02:58:51;18.80;1.00
46416;DHT22;32620;51.704;7.822;2023-06-22T03:01:16;18.70;1.00
46416;DHT22;32620;51.704;7.822;2023-06-22T03:03:42;18.80;1.00
46416;DHT22;32620;51.704;7.822;2023-06-22T03:06:07;18.80;1.00
46416;DHT22;32620;51.704;7.822;2023-06-22T03:08:33;18.80;1.00
46416;DHT22;32620;51.704;7.822;2023-06-22T03:10:59;18.80;1.00
46416;DHT22;32620;51.704;7.822;2023-06-22T03:13:25;18.80;1.00
46416;DHT22;32620;51.704;7.822;2023-06-22T03:15:50;18.80;1.00
46416;DHT22;32620;51.704;7.822;2023-06-22T03:18:16;18.80;1.00
46416;DHT22;32620;51.704;7.822;2023-06-22T03:20:42;18.70;1.00
46416;DHT22;32620;51.704;7.822;2023-06-22T03:23:07;18.70;1.00
46416;DHT22;32620;51.704;7.822;2023-06-22T03:25:33;18.70;1.00
46416;DHT22;32620;51.704;7.822;2023-06-22T03:27:59;18.70;1.00
46416;DHT22;32620;51.704;7.822;2023-06-22T03:30:26;18.70;1.00
46416;DHT22;32620;51.704;7.822;2023-06-22T03:32:51;18.70;1.00
46416;DHT22;32620;51.704;7.822;2023-06-22T03:35:17;18.70;1.00
46416;DHT22;32620;51.704;7.822;2023-06-22T03:37:42;18.70;1.00
46416;DHT22;32620;51.704;7.822;2023-06-22T03:40:08;18.70;1.00
46416;DHT22;32620;51.704;7.822;2023-06-22T03:42:35;18.70;1.00
46416;DHT22;32620;51.704;7.822;2023-06-22T03:45:02;18.80;1.00
46416;DHT22;32620;51.704;7.822;2023-06-22T03:47:28;18.80;1.00
46416;DHT22;32620;51.704;7.822;2023-06-22T03:49:54;18.80;1.00
46416;DHT22;32620;51.704;7.822;2023-06-22T03:52:22;18.80;1.00
46416;DHT22;32620;51.704;7.822;2023-06-22T03:54:48;18.80;1.00
46416;DHT22;32620;51.704;7.822;2023-06-22T03:57:13;18.90;1.00
46416;DHT22;32620;51.704;7.822;2023-06-22T03:59:39;18.90;1.00
46416;DHT22;32620;51.704;7.822;2023-06-22T04:02:04;19.00;1.00
46416;DHT22;32620;51.704;7.822;2023-06-22T04:04:30;19.00;1.00
46416;DHT22;32620;51.704;7.822;2023-06-22T04:06:55;19.10;1.00
46416;DHT22;32620;51.704;7.822;2023-06-22T04:09:21;19.10;1.00
46416;DHT22;32620;51.704;7.822;2023-06-22T04:11:47;19.20;1.00
46416;DHT22;32620;51.704;7.822;2023-06-22T04:14:13;19.20;1.00
46416;DHT22;32620;51.704;7.822;2023-06-22T04:16:38;19.30;1.00
46416;DHT22;32620;51.704;7.822;2023-06-22T04:19:04;19.40;1.00
46416;DHT22;32620;51.704;7.822;2023-06-22T04:21:29;19.40;1.00
46416;DHT22;32620;51.704;7.822;2023-06-22T04:23:55;19.50;1.00
46416;DHT22;32620;51.704;7.822;2023-06-22T04:26:20;19.50;1.00
46416;DHT22;32620;51.704;7.822;2023-06-22T04:28:47;19.50;1.00
46416;DHT22;32620;51.704;7.822;2023-06-22T04:31:17;19.60;1.00
46416;DHT22;32620;51.704;7.822;2023-06-22T04:33:44;19.60;1.00
46416;DHT22;32620;51.704;7.822;2023-06-22T04:36:10;19.70;1.00
46416;DHT22;32620;51.704;7.822;2023-06-22T04:38:39;19.80;1.00
46416;DHT22;32620;51.704;7.822;2023-06-22T04:41:04;19.80;1.00
46416;DHT22;32620;51.704;7.822;2023-06-22T04:43:30;19.90;1.00
46416;DHT22;32620;51.704;7.822;2023-06-22T04:45:57;20.00;1.00
46416;DHT22;32620;51.704;7.822;2023-06-22T04:48:29;20.00;1.00
46416;DHT22;32620;51.704;7.822;2023-06-22T04:50:59;20.10;1.00
46416;DHT22;32620;51.704;7.822;2023-06-22T04:53:29;20.20;1.00
46416;DHT22;32620;51.704;7.822;2023-06-22T04:55:55;20.30;1.00
46416;DHT22;32620;51.704;7.822;2023-06-22T04:58:20;20.40;1.00
46416;DHT22;32620;51.704;7.822;2023-06-22T05:00:47;20.50;1.00
46416;DHT22;32620;51.704;7.822;2023-06-22T05:03:13;20.70;1.00
46416;DHT22;32620;51.704;7.822;2023-06-22T05:05:38;21.00;99.90
46416;DHT22;32620;51.704;7.822;2023-06-22T05:08:04;21.20;99.90
46416;DHT22;32620;51.704;7.822;2023-06-22T05:10:32;21.40;99.90
46416;DHT22;32620;51.704;7.822;2023-06-22T05:12:58;21.30;99.90
46416;DHT22;32620;51.704;7.822;2023-06-22T05:15:24;21.20;99.90
46416;DHT22;32620;51.704;7.822;2023-06-22T05:17:53;21.40;99.90
46416;DHT22;32620;51.704;7.822;2023-06-22T05:20:19;21.50;99.90
46416;DHT22;32620;51.704;7.822;2023-06-22T05:22:44;21.80;99.90
46416;DHT22;32620;51.704;7.822;2023-06-22T05:25:11;22.10;11.80
46416;DHT22;32620;51.704;7.822;2023-06-22T05:27:37;22.30;1.00
46416;DHT22;32620;51.704;7.822;2023-06-22T05:30:06;22.50;99.90
46416;DHT22;32620;51.704;7.822;2023-06-22T05:32:32;22.70;1.00
46416;DHT22;32620;51.704;7.822;2023-06-22T05:34:59;22.60;1.00
46416;DHT22;32620;51.704;7.822;2023-06-22T05:37:24;22.30;99.90
46416;DHT22;32620;51.704;7.822;2023-06-22T05:39:50;22.10;1.00
46416;DHT22;32620;51.704;7.822;2023-06-22T05:42:16;21.90;1.00
46416;DHT22;32620;51.704;7.822;2023-06-22T05:44:41;21.70;99.90
46416;DHT22;32620;51.704;7.822;2023-06-22T05:47:07;21.70;99.90
46416;DHT22;32620;51.704;7.822;2023-06-22T05:49:33;21.50;99.90
46416;DHT22;32620;51.704;7.822;2023-06-22T05:51:59;21.30;99.90
46416;DHT22;32620;51.704;7.822;2023-06-22T05:54:27;21.30;99.90
46416;DHT22;32620;51.704;7.822;2023-06-22T05:56:52;21.20;99.90
46416;DHT22;32620;51.704;7.822;2023-06-22T05:59:18;21.00;99.90
46416;DHT22;32620;51.704;7.822;2023-06-22T06:01:43;20.90;99.90
46416;DHT22;32620;51.704;7.822;2023-06-22T06:04:09;20.90;1.00
46416;DHT22;32620;51.704;7.822;2023-06-22T06:06:35;20.90;1.00
46416;DHT22;32620;51.704;7.822;2023-06-22T06:09:04;21.00;1.00
46416;DHT22;32620;51.704;7.822;2023-06-22T06:11:29;21.00;1.00
46416;DHT22;32620;51.704;7.822;2023-06-22T06:13:55;20.90;99.90
46416;DHT22;32620;51.704;7.822;2023-06-22T06:16:21;20.90;99.90
46416;DHT22;32620;51.704;7.822;2023-06-22T06:18:47;21.00;99.90
46416;DHT22;32620;51.704;7.822;2023-06-22T06:21:14;21.00;99.90
46416;DHT22;32620;51.704;7.822;2023-06-22T06:23:39;21.10;99.90
46416;DHT22;32620;51.704;7.822;2023-06-22T06:26:05;21.10;99.90
46416;DHT22;32620;51.704;7.822;2023-06-22T06:28:32;21.10;99.90
46416;DHT22;32620;51.704;7.822;2023-06-22T06:30:58;21.20;99.90
46416;DHT22;32620;51.704;7.822;2023-06-22T06:33:24;21.20;99.90
46416;DHT22;32620;51.704;7.822;2023-06-22T06:35:49;21.20;99.90
46416;DHT22;32620;51.704;7.822;2023-06-22T06:38:15;21.10;99.90
46416;DHT22;32620;51.704;7.822;2023-06-22T06:40:41;21.00;99.90
46416;DHT22;32620;51.704;7.822;2023-06-22T06:43:06;20.90;1.00
46416;DHT22;32620;51.704;7.822;2023-06-22T06:45:32;20.90;1.00
46416;DHT22;32620;51.704;7.822;2023-06-22T06:48:00;20.80;1.00
46416;DHT22;32620;51.704;7.822;2023-06-22T06:50:25;20.90;1.00
46416;DHT22;32620;51.704;7.822;2023-06-22T06:52:51;20.90;1.00
46416;DHT22;32620;51.704;7.822;2023-06-22T06:55:17;21.00;1.00
46416;DHT22;32620;51.704;7.822;2023-06-22T06:57:44;21.10;1.00
46416;DHT22;32620;51.704;7.822;2023-06-22T07:00:14;21.10;1.00
46416;DHT22;32620;51.704;7.822;2023-06-22T07:02:41;21.20;1.00
46416;DHT22;32620;51.704;7.822;2023-06-22T07:05:08;21.40;1.00
46416;DHT22;32620;51.704;7.822;2023-06-22T07:07:34;21.40;1.00
46416;DHT22;32620;51.704;7.822;2023-06-22T07:10:00;21.40;1.00
46416;DHT22;32620;51.704;7.822;2023-06-22T07:12:26;21.50;1.00
46416;DHT22;32620;51.704;7.822;2023-06-22T07:14:52;21.50;1.00
46416;DHT22;32620;51.704;7.822;2023-06-22T07:17:18;21.50;1.00
46416;DHT22;32620;51.704;7.822;2023-06-22T07:19:45;21.60;1.00
46416;DHT22;32620;51.704;7.822;2023-06-22T07:22:11;21.60;1.00
46416;DHT22;32620;51.704;7.822;2023-06-22T07:24:37;21.50;1.00
46416;DHT22;32620;51.704;7.822;2023-06-22T07:27:03;21.70;1.00
46416;DHT22;32620;51.704;7.822;2023-06-22T07:29:29;21.90;1.00
46416;DHT22;32620;51.704;7.822;2023-06-22T07:31:54;22.20;1.00
46416;DHT22;32620;51.704;7.822;2023-06-22T07:34:21;22.40;1.00
46416;DHT22;32620;51.704;7.822;2023-06-22T07:36:47;22.40;1.00
46416;DHT22;32620;51.704;7.822;2023-06-22T07:39:12;22.50;1.00
46416;DHT22;32620;51.704;7.822;2023-06-22T07:41:39;22.60;99.90
46416;DHT22;32620;51.704;7.822;2023-06-22T07:44:06;22.60;99.90
46416;DHT22;32620;51.704;7.822;2023-06-22T07:46:32;22.70;99.90
46416;DHT22;32620;51.704;7.822;2023-06-22T07:48:57;22.70;99.90
46416;DHT22;32620;51.704;7.822;2023-06-22T07:51:23;22.70;1.00
46416;DHT22;32620;51.704;7.822;2023-06-22T07:53:49;22.70;99.90
46416;DHT22;32620;51.704;7.822;2023-06-22T07:56:15;22.70;1.00
46416;DHT22;32620;51.704;7.822;2023-06-22T07:58:45;22.60;1.00
46416;DHT22;32620;51.704;7.822;2023-06-22T08:01:11;22.50;1.00
46416;DHT22;32620;51.704;7.822;2023-06-22T08:03:37;22.50;1.00
46416;DHT22;32620;51.704;7.822;2023-06-22T08:06:03;22.70;1.00
46416;DHT22;32620;51.704;7.822;2023-06-22T08:08:28;22.70;1.00
46416;DHT22;32620;51.704;7.822;2023-06-22T08:10:54;22.60;1.00
46416;DHT22;32620;51.704;7.822;2023-06-22T08:13:20;22.80;1.00
46416;DHT22;32620;51.704;7.822;2023-06-22T08:15:45;23.10;99.90
46416;DHT22;32620;51.704;7.822;2023-06-22T08:18:11;23.30;99.90
46416;DHT22;32620;51.704;7.822;2023-06-22T08:20:36;23.50;99.90
46416;DHT22;32620;51.704;7.822;2023-06-22T08:23:02;23.80;99.90
46416;DHT22;32620;51.704;7.822;2023-06-22T08:25:32;23.90;99.90
46416;DHT22;32620;51.704;7.822;2023-06-22T08:27:58;24.10;99.90
46416;DHT22;32620;51.704;7.822;2023-06-22T08:30:23;24.10;1.00
46416;DHT22;32620;51.704;7.822;2023-06-22T08:32:49;24.20;1.00
46416;DHT22;32620;51.704;7.822;2023-06-22T08:35:15;24.20;1.00
46416;DHT22;32620;51.704;7.822;2023-06-22T08:37:40;24.40;99.90
46416;DHT22;32620;51.704;7.822;2023-06-22T08:40:08;24.40;99.90
46416;DHT22;32620;51.704;7.822;2023-06-22T08:42:35;24.50;99.90
46416;DHT22;32620;51.704;7.822;2023-06-22T08:45:00;24.50;99.90
46416;DHT22;32620;51.704;7.822;2023-06-22T08:47:27;24.60;71.30
46416;DHT22;32620;51.704;7.822;2023-06-22T08:49:53;24.70;99.90
46416;DHT22;32620;51.704;7.822;2023-06-22T08:52:19;25.30;1.00
46416;DHT22;32620;51.704;7.822;2023-06-22T08:54:45;25.50;1.00
46416;DHT22;32620;51.704;7.822;2023-06-22T08:57:11;26.30;1.00
46416;DHT22;32620;51.704;7.822;2023-06-22T08:59:36;27.20;99.90
46416;DHT22;32620;51.704;7.822;2023-06-22T09:02:02;27.60;99.90
46416;DHT22;32620;51.704;7.822;2023-06-22T09:04:28;27.90;99.90
46416;DHT22;32620;51.704;7.822;2023-06-22T09:06:53;28.20;1.00
46416;DHT22;32620;51.704;7.822;2023-06-22T09:09:20;30.30;99.90
46416;DHT22;32620;51.704;7.822;2023-06-22T09:11:46;31.40;1.00
46416;DHT22;32620;51.704;7.822;2023-06-22T09:14:12;31.70;1.00
46416;DHT22;32620;51.704;7.822;2023-06-22T09:16:38;31.70;99.90
46416;DHT22;32620;51.704;7.822;2023-06-22T09:19:04;31.80;99.90
46416;DHT22;32620;51.704;7.822;2023-06-22T09:21:29;31.80;99.90
46416;DHT22;32620;51.704;7.822;2023-06-22T09:23:55;32.10;99.90
46416;DHT22;32620;51.704;7.822;2023-06-22T09:26:21;32.30;99.90
46416;DHT22;32620;51.704;7.822;2023-06-22T09:28:47;31.70;99.90
46416;DHT22;32620;51.704;7.822;2023-06-22T09:31:13;31.50;99.90
46416;DHT22;32620;51.704;7.822;2023-06-22T09:33:40;31.90;99.90
46416;DHT22;32620;51.704;7.822;2023-06-22T09:36:06;31.90;99.90
46416;DHT22;32620;51.704;7.822;2023-06-22T09:38:37;32.00;99.90
46416;DHT22;32620;51.704;7.822;2023-06-22T09:41:03;31.80;99.90
46416;DHT22;32620;51.704;7.822;2023-06-22T09:43:29;32.00;99.90
46416;DHT22;32620;51.704;7.822;2023-06-22T09:45:55;32.70;99.90
46416;DHT22;32620;51.704;7.822;2023-06-22T09:48:20;33.00;99.90
46416;DHT22;32620;51.704;7.822;2023-06-22T09:50:46;32.00;99.90
46416;DHT22;32620;51.704;7.822;2023-06-22T09:53:12;31.70;99.90
46416;DHT22;32620;51.704;7.822;2023-06-22T09:55:37;32.20;99.90
46416;DHT22;32620;51.704;7.822;2023-06-22T09:58:03;31.60;99.90
46416;DHT22;32620;51.704;7.822;2023-06-22T10:00:28;30.10;99.90
46416;DHT22;32620;51.704;7.822;2023-06-22T10:02:54;30.00;99.90
46416;DHT22;32620;51.704;7.822;2023-06-22T10:05:21;30.60;99.90
46416;DHT22;32620;51.704;7.822;2023-06-22T10:07:47;31.70;99.90
46416;DHT22;32620;51.704;7.822;2023-06-22T10:10:13;31.70;99.90
46416;DHT22;32620;51.704;7.822;2023-06-22T10:12:42;32.10;99.90
46416;DHT22;32620;51.704;7.822;2023-06-22T10:15:08;32.00;99.90
46416;DHT22;32620;51.704;7.822;2023-06-22T10:17:34;31.80;99.90
46416;DHT22;32620;51.704;7.822;2023-06-22T10:20:00;30.80;99.90
46416;DHT22;32620;51.704;7.822;2023-06-22T10:22:26;30.60;99.90
46416;DHT22;32620;51.704;7.822;2023-06-22T10:24:52;30.40;99.90
46416;DHT22;32620;51.704;7.822;2023-06-22T10:27:17;30.80;99.90
46416;DHT22;32620;51.704;7.822;2023-06-22T10:29:44;31.50;99.90
46416;DHT22;32620;51.704;7.822;2023-06-22T10:32:09;31.20;99.90
46416;DHT22;32620;51.704;7.822;2023-06-22T10:34:35;30.40;99.90
46416;DHT22;32620;51.704;7.822;2023-06-22T10:37:00;30.30;99.90
46416;DHT22;32620;51.704;7.822;2023-06-22T10:39:26;30.00;99.90
46416;DHT22;32620;51.704;7.822;2023-06-22T10:41:51;30.00;99.90
46416;DHT22;32620;51.704;7.822;2023-06-22T10:44:18;29.70;99.90
46416;DHT22;32620;51.704;7.822;2023-06-22T10:46:44;29.70;99.90
46416;DHT22;32620;51.704;7.822;2023-06-22T10:49:09;29.70;99.90
46416;DHT22;32620;51.704;7.822;2023-06-22T10:51:35;29.50;99.90
46416;DHT22;32620;51.704;7.822;2023-06-22T10:54:00;29.60;99.90
46416;DHT22;32620;51.704;7.822;2023-06-22T10:56:26;29.60;99.90
46416;DHT22;32620;51.704;7.822;2023-06-22T10:58:51;29.10;99.90
46416;DHT22;32620;51.704;7.822;2023-06-22T11:01:17;29.00;99.90
46416;DHT22;32620;51.704;7.822;2023-06-22T11:03:43;29.10;99.90
46416;DHT22;32620;51.704;7.822;2023-06-22T11:06:08;29.30;99.90
46416;DHT22;32620;51.704;7.822;2023-06-22T11:08:34;28.90;99.90
46416;DHT22;32620;51.704;7.822;2023-06-22T11:10:59;29.30;99.90
46416;DHT22;32620;51.704;7.822;2023-06-22T11:13:25;29.30;99.90
46416;DHT22;32620;51.704;7.822;2023-06-22T11:15:50;29.40;99.90
46416;DHT22;32620;51.704;7.822;2023-06-22T11:18:16;29.30;99.90
46416;DHT22;32620;51.704;7.822;2023-06-22T11:20:42;29.10;99.90
46416;DHT22;32620;51.704;7.822;2023-06-22T11:23:07;29.40;99.90
46416;DHT22;32620;51.704;7.822;2023-06-22T11:25:34;29.50;99.90
46416;DHT22;32620;51.704;7.822;2023-06-22T11:28:04;29.60;99.90
46416;DHT22;32620;51.704;7.822;2023-06-22T11:30:30;29.30;99.90
46416;DHT22;32620;51.704;7.822;2023-06-22T11:32:58;29.10;99.90
46416;DHT22;32620;51.704;7.822;2023-06-22T11:35:24;28.70;1.00
46416;DHT22;32620;51.704;7.822;2023-06-22T11:37:49;28.30;1.00
46416;DHT22;32620;51.704;7.822;2023-06-22T11:40:15;28.00;1.00
46416;DHT22;32620;51.704;7.822;2023-06-22T11:42:43;27.70;1.00
46416;DHT22;32620;51.704;7.822;2023-06-22T11:45:08;27.40;52.40
46416;DHT22;32620;51.704;7.822;2023-06-22T11:47:34;27.10;99.90
46416;DHT22;32620;51.704;7.822;2023-06-22T11:49:59;26.80;99.90
46416;DHT22;32620;51.704;7.822;2023-06-22T11:52:25;26.60;99.90
46416;DHT22;32620;51.704;7.822;2023-06-22T11:54:52;26.50;99.90
46416;DHT22;32620;51.704;7.822;2023-06-22T11:57:18;26.20;1.00
46416;DHT22;32620;51.704;7.822;2023-06-22T11:59:43;25.70;99.90
46416;DHT22;32620;51.704;7.822;2023-06-22T12:02:09;25.40;47.00
46416;DHT22;32620;51.704;7.822;2023-06-22T12:04:35;25.20;1.00
46416;DHT22;32620;51.704;7.822;2023-06-22T12:07:00;24.70;1.00
46416;DHT22;32620;51.704;7.822;2023-06-22T12:09:26;24.50;1.00
46416;DHT22;32620;51.704;7.822;2023-06-22T12:11:51;24.40;17.70
46416;DHT22;32620;51.704;7.822;2023-06-22T12:14:17;24.10;3.70
46416;DHT22;32620;51.704;7.822;2023-06-22T12:16:42;24.00;15.90
46416;DHT22;32620;51.704;7.822;2023-06-22T12:19:09;23.90;88.40
46416;DHT22;32620;51.704;7.822;2023-06-22T12:21:36;23.90;96.60
46416;DHT22;32620;51.704;7.822;2023-06-22T12:24:02;23.70;92.70
46416;DHT22;32620;51.704;7.822;2023-06-22T12:26:27;23.70;99.90
46416;DHT22;32620;51.704;7.822;2023-06-22T12:28:53;23.60;99.90
46416;DHT22;32620;51.704;7.822;2023-06-22T12:31:18;23.50;99.90
46416;DHT22;32620;51.704;7.822;2023-06-22T12:33:44;23.40;99.90
46416;DHT22;32620;51.704;7.822;2023-06-22T12:36:09;23.20;99.90
46416;DHT22;32620;51.704;7.822;2023-06-22T12:38:35;23.10;99.90
46416;DHT22;32620;51.704;7.822;2023-06-22T12:41:01;23.00;99.90
46416;DHT22;32620;51.704;7.822;2023-06-22T12:43:26;22.90;99.90
46416;DHT22;32620;51.704;7.822;2023-06-22T12:45:52;22.90;99.90
46416;DHT22;32620;51.704;7.822;2023-06-22T12:48:18;22.80;99.90
46416;DHT22;32620;51.704;7.822;2023-06-22T12:50:45;22.80;99.90
46416;DHT22;32620;51.704;7.822;2023-06-22T12:53:10;22.70;99.90
46416;DHT22;32620;51.704;7.822;2023-06-22T12:55:36;22.60;99.90
46416;DHT22;32620;51.704;7.822;2023-06-22T12:58:01;22.60;99.90
46416;DHT22;32620;51.704;7.822;2023-06-22T13:00:27;22.50;99.90
46416;DHT22;32620;51.704;7.822;2023-06-22T13:02:53;22.50;99.90
46416;DHT22;32620;51.704;7.822;2023-06-22T13:05:18;22.50;99.90
46416;DHT22;32620;51.704;7.822;2023-06-22T13:07:44;22.40;99.90
46416;DHT22;32620;51.704;7.822;2023-06-22T13:10:11;22.30;99.90
46416;DHT22;32620;51.704;7.822;2023-06-22T13:12:36;22.30;99.90
46416;DHT22;32620;51.704;7.822;2023-06-22T13:15:02;22.30;99.90
46416;DHT22;32620;51.704;7.822;2023-06-22T13:17:28;22.20;99.90
46416;DHT22;32620;51.704;7.822;2023-06-22T13:19:54;22.00;99.90
46416;DHT22;32620;51.704;7.822;2023-06-22T13:22:30;21.90;99.90
46416;DHT22;32620;51.704;7.822;2023-06-22T13:24:57;21.90;99.90
46416;DHT22;32620;51.704;7.822;2023-06-22T13:27:23;21.80;99.90
46416;DHT22;32620;51.704;7.822;2023-06-22T13:29:49;21.80;99.90
46416;DHT22;32620;51.704;7.822;2023-06-22T13:32:14;21.80;99.90
46416;DHT22;32620;51.704;7.822;2023-06-22T13:34:41;21.90;99.90
46416;DHT22;32620;51.704;7.822;2023-06-22T13:37:07;22.10;99.90
46416;DHT22;32620;51.704;7.822;2023-06-22T13:39:32;22.40;99.90
46416;DHT22;32620;51.704;7.822;2023-06-22T13:41:58;22.80;99.90
46416;DHT22;32620;51.704;7.822;2023-06-22T13:44:24;23.00;99.90
46416;DHT22;32620;51.704;7.822;2023-06-22T13:46:54;23.30;99.90
46416;DHT22;32620;51.704;7.822;2023-06-22T13:49:20;23.30;99.90
46416;DHT22;32620;51.704;7.822;2023-06-22T13:51:47;23.30;99.90
46416;DHT22;32620;51.704;7.822;2023-06-22T13:54:13;23.30;99.90
46416;DHT22;32620;51.704;7.822;2023-06-22T13:56:39;23.30;99.90
46416;DHT22;32620;51.704;7.822;2023-06-22T13:59:05;23.20;99.90
46416;DHT22;32620;51.704;7.822;2023-06-22T14:01:32;23.30;99.90
46416;DHT22;32620;51.704;7.822;2023-06-22T14:03:57;23.50;99.90
46416;DHT22;32620;51.704;7.822;2023-06-22T14:06:23;23.70;99.90
46416;DHT22;32620;51.704;7.822;2023-06-22T14:08:48;23.90;99.90
46416;DHT22;32620;51.704;7.822;2023-06-22T14:11:14;24.40;99.90
46416;DHT22;32620;51.704;7.822;2023-06-22T14:13:40;24.80;78.20
46416;DHT22;32620;51.704;7.822;2023-06-22T14:16:08;24.80;58.20
46416;DHT22;32620;51.704;7.822;2023-06-22T14:18:33;25.00;69.10
46416;DHT22;32620;51.704;7.822;2023-06-22T14:20:59;24.90;53.70
46416;DHT22;32620;51.704;7.822;2023-06-22T14:23:24;24.50;34.90
46416;DHT22;32620;51.704;7.822;2023-06-22T14:25:50;24.30;79.70
46416;DHT22;32620;51.704;7.822;2023-06-22T14:28:16;24.40;81.30
46416;DHT22;32620;51.704;7.822;2023-06-22T14:30:42;24.30;75.40
46416;DHT22;32620;51.704;7.822;2023-06-22T14:33:07;24.40;75.00
46416;DHT22;32620;51.704;7.822;2023-06-22T14:35:33;24.60;84.70
46416;DHT22;32620;51.704;7.822;2023-06-22T14:37:58;24.80;36.70
46416;DHT22;32620;51.704;7.822;2023-06-22T14:40:24;24.70;15.60
46416;DHT22;32620;51.704;7.822;2023-06-22T14:42:49;24.40;27.00
46416;DHT22;32620;51.704;7.822;2023-06-22T14:45:15;24.40;41.20
46416;DHT22;32620;51.704;7.822;2023-06-22T14:47:40;24.50;46.00
46416;DHT22;32620;51.704;7.822;2023-06-22T14:50:06;24.50;36.20
46416;DHT22;32620;51.704;7.822;2023-06-22T14:52:32;24.80;13.60
46416;DHT22;32620;51.704;7.822;2023-06-22T14:54:57;24.80;15.50
46416;DHT22;32620;51.704;7.822;2023-06-22T14:57:23;24.70;1.20
46416;DHT22;32620;51.704;7.822;2023-06-22T14:59:49;24.50;1.00
46416;DHT22;32620;51.704;7.822;2023-06-22T15:02:15;24.30;11.10
46416;DHT22;32620;51.704;7.822;2023-06-22T15:04:41;24.80;14.70
46416;DHT22;32620;51.704;7.822;2023-06-22T15:07:06;24.70;1.00
46416;DHT22;32620;51.704;7.822;2023-06-22T15:09:32;25.20;8.60
46416;DHT22;32620;51.704;7.822;2023-06-22T15:11:58;25.20;1.00
46416;DHT22;32620;51.704;7.822;2023-06-22T15:14:27;25.40;1.00
46416;DHT22;32620;51.704;7.822;2023-06-22T15:16:52;25.20;1.00
46416;DHT22;32620;51.704;7.822;2023-06-22T15:19:18;24.70;10.60
46416;DHT22;32620;51.704;7.822;2023-06-22T15:21:44;24.60;25.90
46416;DHT22;32620;51.704;7.822;2023-06-22T15:24:09;24.40;21.70
46416;DHT22;32620;51.704;7.822;2023-06-22T15:26:35;24.10;22.80
46416;DHT22;32620;51.704;7.822;2023-06-22T15:29:00;24.00;42.60
46416;DHT22;32620;51.704;7.822;2023-06-22T15:31:27;23.80;28.00